Adams, Massachusetts
Current Conditions -  °F | °C
As of 9:52 PM on Tuesday 25 Nov 2014 (Local Time) from KAQW Reporting Station
Clear Clear  
Wind Chill: 38°   Ceiling: Unl
Heat Index: 43°   Visibility: 10mi
Dew Point: 26°   Wind: 8mph
Humidity: 51%   Direction: 270°W
Pressure: 30.09"   Gusts: 17mph
Location:  42.62°N, 73.12°W
Report Text: KAQW 260252Z AUTO 27007G15KT 10SM CLR 06/M03 A3009 RMK AO2 SLP194 T00611033 53028
Loading
Personal Weather Stations






























Interactive Weather Map New forecast layout! Learn more

10-Day Weather Forecast

Advertisements
Track Severe Weather on mobile